createdAt,value
2022-08-22T00:00:13.649Z,2.45
2022-08-22T00:02:43.199Z,1.20
2022-08-22T00:02:49.988Z,2.15
2022-08-22T00:02:52.695Z,1.80
2022-08-22T00:03:22.783Z,2.10
2022-08-22T00:06:11.201Z,2.45
2022-08-22T00:08:49.465Z,2.15
2022-08-22T00:11:29.599Z,2.10
2022-08-22T00:14:07.375Z,2.20
2022-08-22T00:16:45.227Z,2.20
2022-08-22T00:19:23.873Z,2.40
2022-08-22T00:22:02.133Z,2.28
2022-08-22T00:24:36.066Z,2.42
2022-08-22T00:27:11.764Z,2.40
2022-08-22T00:29:45.481Z,2.35
2022-08-22T00:32:20.593Z,2.13
2022-08-22T00:34:58.106Z,2.30
2022-08-22T00:37:36.317Z,2.60
2022-08-22T00:40:22.709Z,2.67
2022-08-22T00:43:30.893Z,2.40
2022-08-22T00:46:25.549Z,2.80
2022-08-22T00:49:12.345Z,2.78
2022-08-22T00:52:18.894Z,2.50
2022-08-22T00:55:05.227Z,3.10
2022-08-22T00:57:50.029Z,2.75
2022-08-22T01:00:22.994Z,3.08
2022-08-22T01:03:28.650Z,3.85
2022-08-22T01:06:17.178Z,2.85
2022-08-22T01:09:02.257Z,3.63
2022-08-22T01:12:13.820Z,4.07
2022-08-22T01:14:48.745Z,3.60
2022-08-22T01:17:46.571Z,4.07
2022-08-22T01:20:55.388Z,4.07
2022-08-22T01:24:02.849Z,3.40
2022-08-22T01:27:02.889Z,2.40
2022-08-22T01:30:04.773Z,2.75
2022-08-22T01:33:13.738Z,2.63
2022-08-22T01:36:09.067Z,2.63
2022-08-22T01:39:04.158Z,2.80
2022-08-22T01:42:07.056Z,2.40
2022-08-22T01:45:18.032Z,2.60
2022-08-22T01:47:54.351Z,2.80
2022-08-22T01:50:28.397Z,2.58
2022-08-22T01:53:06.920Z,2.55
2022-08-22T01:55:44.761Z,2.75
2022-08-22T01:58:24.194Z,3.10
2022-08-22T02:01:09.899Z,2.90
2022-08-22T02:03:52.354Z,2.88
2022-08-22T02:06:33.258Z,2.92
2022-08-22T02:09:10.490Z,2.80
2022-08-22T02:11:47.848Z,3.03
2022-08-22T02:14:34.210Z,2.88
2022-08-22T02:17:17.004Z,2.83
2022-08-22T02:19:57.385Z,3.10
2022-08-22T02:25:22.777Z,3.08
2022-08-22T02:27:58.710Z,3.00
2022-08-22T02:30:44.340Z,3.28
2022-08-22T02:33:25.804Z,3.25
2022-08-22T02:36:01.144Z,3.47
2022-08-22T02:38:38.483Z,3.10
2022-08-22T02:41:18.086Z,3.20
2022-08-22T02:43:59.621Z,3.17
2022-08-22T02:46:41.116Z,3.00
2022-08-22T02:49:18.892Z,3.05
2022-08-22T02:51:54.756Z,2.80
2022-08-22T02:54:31.552Z,2.80
2022-08-22T02:57:14.081Z,2.70
2022-08-22T03:00:32.526Z,2.50
2022-08-22T03:03:16.170Z,2.53
2022-08-22T03:06:01.289Z,2.63
2022-08-22T03:08:34.456Z,2.80
2022-08-22T03:11:19.447Z,3.00
2022-08-22T03:13:57.189Z,2.97
2022-08-22T03:16:35.112Z,2.83
2022-08-22T03:19:13.225Z,2.72
2022-08-22T03:21:59.423Z,2.30
2022-08-22T03:24:36.367Z,2.53
2022-08-22T03:27:12.980Z,2.70
2022-08-22T03:29:49.275Z,2.85
2022-08-22T03:32:21.958Z,2.47
2022-08-22T03:35:03.058Z,2.78
2022-08-22T03:37:43.359Z,2.40
2022-08-22T03:40:31.837Z,3.10
2022-08-22T03:43:22.562Z,2.97
2022-08-22T03:46:28.161Z,2.72
2022-08-22T03:49:26.570Z,3.00
2022-08-22T03:52:23.124Z,3.00
2022-08-22T03:55:18.856Z,2.78
2022-08-22T03:58:17.153Z,3.05
2022-08-22T04:01:40.022Z,3.07
2022-08-22T04:04:58.216Z,2.65
2022-08-22T04:07:46.789Z,2.60
2022-08-22T04:11:02.519Z,3.05
2022-08-22T04:14:00.754Z,2.45
2022-08-22T04:16:58.227Z,3.13
2022-08-22T04:19:54.546Z,3.20
2022-08-22T04:22:51.139Z,2.88
2022-08-22T04:25:24.381Z,3.40
2022-08-22T04:28:02.294Z,3.38
2022-08-22T04:30:38.707Z,3.13
2022-08-22T04:33:16.386Z,3.13
2022-08-22T04:35:56.136Z,3.38
2022-08-22T04:38:32.506Z,3.42
2022-08-22T04:41:08.913Z,3.45
2022-08-22T04:43:44.885Z,3.75
2022-08-22T04:46:21.049Z,3.47
2022-08-22T04:49:00.295Z,3.80
2022-08-22T04:51:39.771Z,3.70
2022-08-22T04:54:32.130Z,3.67
2022-08-22T04:57:15.627Z,3.78
2022-08-22T04:59:45.787Z,3.80
2022-08-22T05:02:23.318Z,3.70
2022-08-22T05:05:01.699Z,3.83
2022-08-22T05:07:36.378Z,3.65
2022-08-22T05:10:12.181Z,3.50
2022-08-22T05:12:47.898Z,3.90
2022-08-22T05:15:23.096Z,4.07
2022-08-22T05:17:56.937Z,3.80
2022-08-22T05:20:30.232Z,3.78
2022-08-22T05:23:06.309Z,3.70
2022-08-22T05:25:49.697Z,3.83
2022-08-22T05:28:27.830Z,3.60
2022-08-22T05:30:58.680Z,3.65
2022-08-22T05:33:32.032Z,3.72
2022-08-22T05:36:07.575Z,3.50
2022-08-22T05:38:42.238Z,3.80
2022-08-22T05:41:20.161Z,3.88
2022-08-22T05:43:51.303Z,3.47
2022-08-22T05:46:27.065Z,3.58
2022-08-22T05:49:01.963Z,3.83
2022-08-22T05:51:47.807Z,4.20
2022-08-22T05:54:21.757Z,4.00
2022-08-22T05:57:11.053Z,3.83
2022-08-22T05:59:44.370Z,4.20
2022-08-22T06:02:21.944Z,3.80
2022-08-22T06:04:55.377Z,3.92
2022-08-22T06:07:34.571Z,4.07
2022-08-22T06:10:24.764Z,3.75
2022-08-22T06:13:01.980Z,3.60
2022-08-22T06:15:36.183Z,3.63
2022-08-22T06:18:11.513Z,4.00
2022-08-22T06:20:45.292Z,4.15
2022-08-22T06:23:22.483Z,3.67
2022-08-22T06:25:53.333Z,3.72
2022-08-22T06:28:26.704Z,3.53
2022-08-22T06:30:57.444Z,3.50
2022-08-22T06:33:29.834Z,3.67
2022-08-22T06:36:21.471Z,3.70
2022-08-22T06:39:02.582Z,4.13
2022-08-22T06:41:35.637Z,4.10
2022-08-22T06:44:08.242Z,3.78
2022-08-22T06:46:40.355Z,4.18
2022-08-22T06:49:11.391Z,3.58
2022-08-22T06:51:41.895Z,3.38
2022-08-22T06:54:19.746Z,3.72
2022-08-22T06:56:52.535Z,3.83
2022-08-22T06:59:27.244Z,3.90
2022-08-22T07:02:02.770Z,3.83
2022-08-22T07:04:33.024Z,4.38
2022-08-22T07:09:38.290Z,4.30
2022-08-22T07:12:18.371Z,3.78
2022-08-22T07:14:52.147Z,4.03
2022-08-22T07:17:25.449Z,3.60
2022-08-22T07:20:00.542Z,3.58
2022-08-22T07:22:33.624Z,3.80
2022-08-22T07:25:10.606Z,3.92
2022-08-22T07:27:55.531Z,3.70
2022-08-22T07:30:30.227Z,3.67
2022-08-22T07:33:26.159Z,3.60
2022-08-22T07:36:01.621Z,3.67
2022-08-22T07:38:42.971Z,3.30
2022-08-22T07:41:20.052Z,3.05
2022-08-22T07:43:54.121Z,3.05
2022-08-22T07:46:29.978Z,2.92
2022-08-22T07:49:09.596Z,3.38
2022-08-22T07:51:45.428Z,3.13
2022-08-22T07:54:21.747Z,3.30
2022-08-22T07:57:04.396Z,3.15
2022-08-22T07:59:37.132Z,2.90
2022-08-22T08:02:13.508Z,2.80
2022-08-22T08:04:43.901Z,2.80
2022-08-22T08:07:17.188Z,2.35
2022-08-22T08:09:51.186Z,2.65
2022-08-22T08:12:30.172Z,2.60
2022-08-22T08:15:01.391Z,2.47
2022-08-22T08:17:33.399Z,2.70
2022-08-22T08:20:09.366Z,2.50
2022-08-22T08:22:41.485Z,2.60
2022-08-22T08:25:14.409Z,2.08
2022-08-22T08:28:03.459Z,2.22
2022-08-22T08:30:40.460Z,2.38
2022-08-22T08:33:26.173Z,2.50
2022-08-22T08:36:03.937Z,2.88
2022-08-22T08:38:39.342Z,2.70
2022-08-22T08:41:38.840Z,2.53
2022-08-22T08:44:28.358Z,2.67
2022-08-22T08:47:17.509Z,2.63
2022-08-22T08:50:16.368Z,2.80
2022-08-22T08:53:21.864Z,2.33
2022-08-22T08:55:59.633Z,2.50
2022-08-22T08:58:51.732Z,2.17
2022-08-22T09:01:49.198Z,2.50
2022-08-22T09:04:39.158Z,2.20
2022-08-22T09:07:46.999Z,2.45
2022-08-22T09:10:36.221Z,2.30
2022-08-22T09:13:41.707Z,2.53
2022-08-22T09:16:29.650Z,2.33
2022-08-22T09:19:27.182Z,2.30
2022-08-22T09:22:50.611Z,2.15
2022-08-22T09:25:38.351Z,2.40
2022-08-22T09:28:17.869Z,2.00
2022-08-22T09:31:33.019Z,2.10
2022-08-22T09:34:13.709Z,2.03
2022-08-22T09:37:14.001Z,2.42
2022-08-22T09:39:58.705Z,2.05
2022-08-22T09:42:39.833Z,2.40
2022-08-22T09:45:43.152Z,1.83
2022-08-22T09:48:48.075Z,1.80
2022-08-22T09:51:31.681Z,2.00
2022-08-22T09:54:18.788Z,2.08
2022-08-22T09:57:15.739Z,2.33
2022-08-22T10:00:13.631Z,2.40
2022-08-22T10:02:53.653Z,2.08
2022-08-22T10:05:39.503Z,2.25
2022-08-22T10:08:27.623Z,1.98
2022-08-22T10:11:08.653Z,2.35
2022-08-22T10:13:52.884Z,2.47
2022-08-22T10:16:48.618Z,2.70
2022-08-22T10:19:26.408Z,2.70
2022-08-22T10:22:22.127Z,2.40
2022-08-22T10:25:09.077Z,2.30
2022-08-22T10:27:52.796Z,2.75
2022-08-22T10:30:27.939Z,2.33
2022-08-22T10:33:14.322Z,2.17
2022-08-22T10:35:57.998Z,2.40
2022-08-22T10:38:43.957Z,2.50
2022-08-22T10:41:30.735Z,2.22
2022-08-22T10:44:06.338Z,2.03
2022-08-22T10:46:42.259Z,1.90
2022-08-22T10:49:20.737Z,2.22
2022-08-22T10:52:06.509Z,2.00
2022-08-22T10:54:53.896Z,2.20
2022-08-22T10:57:39.973Z,1.92
2022-08-22T11:00:16.904Z,2.10
2022-08-22T11:03:00.963Z,2.25
2022-08-22T11:05:40.415Z,2.00
2022-08-22T11:08:43.739Z,2.40
2022-08-22T11:11:39.030Z,2.30
2022-08-22T11:14:36.193Z,2.70
2022-08-22T11:17:27.557Z,2.35
2022-08-22T11:20:13.678Z,2.40
2022-08-22T11:22:55.537Z,2.13
2022-08-22T11:25:41.410Z,1.92
2022-08-22T11:28:48.799Z,2.35
2022-08-22T11:34:00.849Z,2.47
2022-08-22T11:36:40.229Z,2.22
2022-08-22T11:39:22.056Z,2.13
2022-08-22T11:41:59.992Z,1.95
2022-08-22T11:44:34.487Z,1.80
2022-08-22T11:47:12.925Z,1.77
2022-08-22T11:49:57.446Z,1.60
2022-08-22T11:52:59.214Z,1.90
2022-08-22T11:56:15.058Z,2.00
2022-08-22T11:59:00.520Z,1.70
2022-08-22T12:01:39.116Z,2.08
2022-08-22T12:04:21.327Z,1.75
2022-08-22T12:07:00.083Z,1.90
2022-08-22T12:09:44.213Z,1.80
2022-08-22T12:12:32.768Z,1.70
2022-08-22T12:15:11.013Z,2.20
2022-08-22T12:18:21.412Z,2.10
2022-08-22T12:21:23.930Z,2.03
2022-08-22T12:24:24.867Z,1.60
2022-08-22T12:27:28.556Z,1.98
2022-08-22T12:30:13.204Z,1.98
2022-08-22T12:33:23.153Z,1.85
2022-08-22T12:36:18.365Z,1.70
2022-08-22T12:39:43.941Z,1.80
2022-08-22T12:42:31.926Z,2.05
2022-08-22T12:45:14.429Z,2.15
2022-08-22T12:48:01.912Z,1.88
2022-08-22T12:51:19.390Z,2.20
2022-08-22T12:54:55.049Z,1.90
2022-08-22T12:57:39.009Z,1.70
2022-08-22T13:00:29.584Z,2.10
2022-08-22T13:03:04.659Z,1.95
2022-08-22T13:05:40.656Z,2.05
2022-08-22T13:08:21.950Z,2.30
2022-08-22T13:11:10.013Z,1.77
2022-08-22T13:13:56.592Z,1.88
2022-08-22T13:16:49.053Z,1.52
2022-08-22T13:19:39.631Z,1.55
2022-08-22T13:22:14.995Z,1.60
2022-08-22T13:24:52.658Z,1.40
2022-08-22T13:27:30.691Z,1.50
2022-08-22T13:30:12.380Z,1.42
2022-08-22T13:32:46.897Z,1.73
2022-08-22T13:35:25.601Z,1.23
2022-08-22T13:38:05.002Z,1.33
2022-08-22T13:40:37.170Z,1.48
2022-08-22T13:43:11.306Z,1.67
2022-08-22T13:45:44.087Z,1.17
2022-08-22T13:48:16.718Z,1.30
2022-08-22T13:51:06.123Z,1.30
2022-08-22T13:53:46.392Z,1.20
2022-08-22T13:56:31.359Z,1.33
2022-08-22T13:59:06.032Z,1.35
2022-08-22T14:01:53.061Z,1.33
2022-08-22T14:04:36.007Z,1.27
2022-08-22T14:07:25.516Z,1.40
2022-08-22T14:10:06.246Z,1.70
2022-08-22T14:13:41.734Z,1.60
2022-08-22T14:16:20.739Z,2.40
2022-08-22T14:18:54.918Z,2.03
2022-08-22T14:21:41.199Z,1.67
2022-08-22T14:24:18.963Z,2.00
2022-08-22T14:26:59.632Z,1.45
2022-08-22T14:29:45.793Z,1.42
2022-08-22T14:32:43.319Z,1.80
2022-08-22T14:35:35.024Z,7.13
2022-08-22T14:38:27.565Z,1.77
2022-08-22T14:41:06.061Z,1.63
2022-08-22T14:43:49.386Z,1.40
2022-08-22T14:46:26.587Z,1.20
2022-08-22T14:49:29.401Z,1.30
2022-08-22T14:52:10.363Z,1.50
2022-08-22T14:54:50.983Z,1.60
2022-08-22T14:57:21.848Z,1.52
2022-08-22T14:59:53.703Z,1.40
2022-08-22T15:02:29.787Z,1.38
2022-08-22T15:05:12.574Z,1.42
2022-08-22T15:07:42.800Z,1.33
2022-08-22T15:10:25.555Z,1.20
2022-08-22T15:12:58.742Z,1.33
2022-08-22T15:15:41.181Z,1.10
2022-08-22T15:18:33.773Z,1.17
2022-08-22T15:21:08.636Z,1.23
2022-08-22T15:23:46.819Z,1.02
2022-08-22T15:26:28.093Z,1.13
2022-08-22T15:29:25.607Z,1.15
2022-08-22T15:32:01.409Z,1.27
2022-08-22T15:34:38.982Z,1.38
2022-08-22T15:37:35.176Z,1.42
2022-08-22T15:40:13.106Z,1.40
2022-08-22T15:42:54.369Z,1.40
2022-08-22T15:45:54.154Z,1.20
2022-08-22T15:48:37.064Z,1.38
2022-08-22T15:51:13.818Z,1.08
2022-08-22T15:54:25.260Z,1.20
2022-08-22T15:57:14.128Z,1.30
2022-08-22T15:59:54.746Z,1.30
2022-08-22T16:02:35.639Z,1.15
2022-08-22T16:05:23.145Z,1.23
2022-08-22T16:08:03.761Z,1.10
2022-08-22T16:10:39.279Z,1.00
2022-08-22T16:13:34.939Z,1.15
2022-08-22T16:16:11.173Z,1.45
2022-08-22T16:19:13.886Z,1.20
2022-08-22T16:22:12.148Z,1.30
2022-08-22T16:25:03.526Z,1.20
2022-08-22T16:27:35.023Z,1.23
2022-08-22T16:30:17.053Z,1.10
2022-08-22T16:32:56.357Z,1.40
2022-08-22T16:36:22.949Z,1.10
2022-08-22T16:38:55.923Z,1.13
2022-08-22T16:41:40.287Z,1.27
2022-08-22T16:44:24.040Z,1.30
2022-08-22T16:46:56.622Z,1.70
2022-08-22T16:49:30.610Z,1.30
2022-08-22T16:52:37.180Z,1.33
2022-08-22T16:55:28.620Z,1.20
2022-08-22T16:58:06.982Z,1.40
2022-08-22T17:00:57.556Z,1.48
2022-08-22T17:03:38.895Z,1.45
2022-08-22T17:06:36.363Z,1.40
2022-08-22T17:09:31.122Z,1.25
2022-08-22T17:12:13.189Z,1.27
2022-08-22T17:14:55.122Z,1.20
2022-08-22T17:17:37.072Z,1.17
2022-08-22T17:20:29.649Z,1.58
2022-08-22T17:23:10.565Z,1.15
2022-08-22T17:25:58.783Z,1.30
2022-08-22T17:28:38.642Z,1.40
2022-08-22T17:31:18.206Z,1.10
2022-08-22T17:34:09.889Z,1.42
2022-08-22T17:36:53.810Z,1.50
2022-08-22T17:39:38.496Z,1.30
2022-08-22T17:42:21.396Z,1.13
2022-08-22T17:45:01.002Z,1.10
2022-08-22T17:47:34.791Z,1.13
2022-08-22T17:50:21.964Z,1.00
2022-08-22T17:52:57.130Z,1.10
2022-08-22T17:55:32.553Z,1.17
2022-08-22T17:58:11.199Z,1.20
2022-08-22T18:00:49.424Z,1.45
2022-08-22T18:03:26.277Z,1.63
2022-08-22T18:06:06.108Z,1.25
2022-08-22T18:11:40.059Z,1.17
2022-08-22T18:14:22.297Z,1.40
2022-08-22T18:16:55.526Z,1.13
2022-08-22T18:19:41.145Z,1.40
2022-08-22T18:22:19.412Z,1.02
2022-08-22T18:24:54.810Z,1.50
2022-08-22T18:27:34.994Z,1.27
2022-08-22T18:30:16.363Z,4.35
2022-08-22T18:32:56.063Z,2.65
2022-08-22T18:38:19.693Z,1.30
2022-08-22T18:40:55.621Z,1.40
2022-08-22T18:43:36.213Z,1.35
2022-08-22T18:46:21.932Z,1.50
2022-08-22T18:49:14.191Z,1.60
2022-08-22T18:51:41.697Z,1.67
2022-08-22T18:54:43.145Z,1.90
2022-08-22T18:57:32.325Z,1.60
2022-08-22T19:00:16.530Z,1.42
2022-08-22T19:03:14.993Z,1.55
2022-08-22T19:06:09.915Z,1.48
2022-08-22T19:08:54.706Z,1.30
2022-08-22T19:11:43.820Z,1.80
2022-08-22T19:14:27.914Z,1.70
2022-08-22T19:17:17.925Z,1.80
2022-08-22T19:20:15.657Z,1.50
2022-08-22T19:22:45.450Z,1.52
2022-08-22T19:25:26.893Z,1.50
2022-08-22T19:28:26.785Z,1.80
2022-08-22T19:31:22.753Z,1.80
2022-08-22T19:34:08.548Z,1.85
2022-08-22T19:36:38.110Z,1.50
2022-08-22T19:39:09.422Z,1.50
2022-08-22T19:41:52.452Z,1.70
2022-08-22T19:44:42.342Z,1.50
2022-08-22T19:47:30.943Z,1.40
2022-08-22T19:50:08.706Z,1.50
2022-08-22T19:52:56.269Z,1.90
2022-08-22T19:55:34.576Z,1.50
2022-08-22T19:58:13.182Z,1.30
2022-08-22T20:00:53.529Z,1.65
2022-08-22T20:03:37.502Z,1.63
2022-08-22T20:06:33.747Z,1.38
2022-08-22T20:09:18.582Z,1.52
2022-08-22T20:11:56.709Z,2.30
2022-08-22T20:14:30.886Z,1.83
2022-08-22T20:17:12.692Z,1.55
2022-08-22T20:22:47.116Z,1.58
2022-08-22T20:25:42.384Z,1.90
2022-08-22T20:28:26.545Z,1.70
2022-08-22T20:31:00.502Z,1.75
2022-08-22T20:33:35.003Z,1.90
2022-08-22T20:36:27.151Z,1.65
2022-08-22T20:39:01.193Z,1.80
2022-08-22T20:41:38.651Z,2.30
2022-08-22T20:44:15.960Z,2.10
2022-08-22T20:46:54.987Z,2.00
2022-08-22T20:49:29.507Z,2.08
2022-08-22T20:52:01.352Z,1.95
2022-08-22T20:54:33.474Z,1.63
2022-08-22T20:57:11.411Z,2.03
2022-08-22T20:59:43.062Z,1.30
2022-08-22T21:02:17.120Z,1.83
2022-08-22T21:05:00.099Z,1.80
2022-08-22T21:07:32.161Z,1.60
2022-08-22T21:10:25.442Z,1.50
2022-08-22T21:13:12.614Z,1.50
2022-08-22T21:15:45.790Z,1.60
2022-08-22T21:18:24.177Z,1.52
2022-08-22T21:21:05.126Z,1.60
2022-08-22T21:23:38.961Z,1.60
2022-08-22T21:26:10.425Z,1.48
2022-08-22T21:28:54.827Z,1.60
2022-08-22T21:31:26.240Z,1.48
2022-08-22T21:33:57.086Z,1.40
2022-08-22T21:36:31.695Z,1.55
2022-08-22T21:39:04.650Z,1.65
2022-08-22T21:41:39.328Z,1.52
2022-08-22T21:44:29.284Z,1.40
2022-08-22T21:47:14.371Z,1.58
2022-08-22T21:50:15.676Z,1.48
2022-08-22T21:53:02.313Z,1.55
2022-08-22T21:55:34.518Z,1.50
2022-08-22T21:58:07.750Z,1.70
2022-08-22T22:00:49.797Z,1.50
2022-08-22T22:03:21.122Z,1.40
2022-08-22T22:05:52.937Z,2.00
2022-08-22T22:08:23.773Z,1.67
2022-08-22T22:11:01.876Z,1.80
2022-08-22T22:13:31.974Z,1.73
2022-08-22T22:16:02.269Z,1.60
2022-08-22T22:23:32.926Z,1.90
2022-08-22T22:26:04.438Z,1.80
2022-08-22T22:28:37.929Z,1.70
2022-08-22T22:31:07.891Z,2.00
2022-08-22T22:33:39.970Z,1.80
2022-08-22T22:36:12.366Z,1.90
2022-08-22T22:38:43.341Z,1.83
2022-08-22T22:41:14.005Z,1.77
2022-08-22T22:43:45.004Z,1.58
2022-08-22T22:46:14.222Z,1.73
2022-08-22T22:48:43.438Z,1.92
2022-08-22T22:51:14.694Z,1.50
2022-08-22T22:53:45.814Z,1.58
2022-08-22T22:56:17.760Z,1.63
2022-08-22T22:58:50.815Z,1.80
2022-08-22T23:01:30.505Z,1.60
2022-08-22T23:04:03.245Z,1.42
2022-08-22T23:06:35.749Z,1.60
2022-08-22T23:09:06.425Z,1.50
2022-08-22T23:11:35.736Z,1.58
2022-08-22T23:14:05.183Z,1.50
2022-08-22T23:16:37.254Z,1.65
2022-08-22T23:19:10.510Z,1.42
2022-08-22T23:21:40.596Z,1.70
2022-08-22T23:24:11.992Z,1.58
2022-08-22T23:26:42.377Z,1.25
2022-08-22T23:29:12.302Z,1.80
2022-08-22T23:31:43.535Z,1.80
2022-08-22T23:34:15.134Z,1.45
2022-08-22T23:36:47.833Z,1.60
2022-08-22T23:39:21.054Z,1.42
2022-08-22T23:41:50.952Z,1.52
2022-08-22T23:44:23.150Z,1.58
2022-08-22T23:46:53.137Z,1.20
2022-08-22T23:49:22.981Z,1.30
2022-08-22T23:51:53.284Z,1.50
2022-08-22T23:54:24.350Z,1.30
2022-08-22T23:56:55.809Z,1.33
2022-08-22T23:59:30.063Z,1.67
